Time;durP1;ratioP1;P1;durP2;ratioP2;P2;SDS_P1;SDS_P2;PMS_P1;PMS_P2;Temp;Humidity;BMP_temperature;BMP_pressure;BME280_temperature;BME280_humidity;BME280_pressure;Samples;Min_cycle;Max_cycle;Signal;HPM_P1;HPM_P2
2021/09/22 00:00:43;;;;;;;7.20;6.70;;;21.20;33.20;;;;;;4955078;29;20798;-59
2021/09/22 00:03:08;;;;;;;7.13;6.63;;;21.20;33.30;;;;;;4954780;28;20190;-60
2021/09/22 00:05:34;;;;;;;7.17;6.57;;;21.20;33.30;;;;;;4955009;29;20203;-60
2021/09/22 00:07:59;;;;;;;7.40;6.80;;;21.20;33.30;;;;;;4954699;29;20207;-60
2021/09/22 00:10:25;;;;;;;7.57;6.97;;;21.20;33.30;;;;;;4954931;29;20622;-60
2021/09/22 00:12:52;;;;;;;7.90;7.30;;;21.20;33.20;;;;;;4954835;29;20190;-59
2021/09/22 00:15:20;;;;;;;7.00;6.50;;;21.20;33.10;;;;;;4954871;29;20423;-60
2021/09/22 00:17:46;;;;;;;7.17;6.63;;;21.10;33.00;;;;;;4954655;29;20419;-59
2021/09/22 00:20:13;;;;;;;6.80;6.17;;;21.10;33.10;;;;;;4954557;29;20438;-60
2021/09/22 00:22:39;;;;;;;6.67;6.10;;;21.10;33.10;;;;;;4954806;29;20209;-60
2021/09/22 00:25:06;;;;;;;7.80;7.20;;;21.10;33.30;;;;;;4954722;29;20446;-60
2021/09/22 00:27:32;;;;;;;7.77;7.17;;;21.10;33.30;;;;;;4954552;29;20199;-60
2021/09/22 00:29:59;;;;;;;6.80;6.20;;;21.10;33.40;;;;;;4954547;28;20462;-60
2021/09/22 00:32:26;;;;;;;7.03;6.63;;;21.10;33.40;;;;;;4954556;29;20419;-59
2021/09/22 00:34:52;;;;;;;7.53;6.93;;;21.10;33.40;;;;;;4954525;29;20451;-60
2021/09/22 00:37:18;;;;;;;6.93;6.30;;;21.10;33.50;;;;;;4954556;29;20787;-60
2021/09/22 00:39:44;;;;;;;6.93;6.40;;;21.10;33.60;;;;;;4954515;29;20534;-58
2021/09/22 00:42:09;;;;;;;7.20;6.70;;;21.10;33.50;;;;;;4954499;29;20456;-60
2021/09/22 00:44:53;;;;;;;8.23;7.53;;;21.10;33.50;;;;;;4954327;29;20176;-60
2021/09/22 00:47:19;;;;;;;7.73;7.13;;;21.10;33.50;;;;;;4954114;29;20831;-60
2021/09/22 00:49:45;;;;;;;6.80;6.30;;;21.10;33.60;;;;;;4954234;29;20546;-60
2021/09/22 00:52:13;;;;;;;6.87;6.37;;;21.10;33.70;;;;;;4954452;29;20966;-60
2021/09/22 00:54:39;;;;;;;6.90;6.40;;;21.10;33.70;;;;;;4954402;29;20187;-60
2021/09/22 00:57:05;;;;;;;6.27;5.87;;;21.10;33.60;;;;;;4954025;29;20418;-60
2021/09/22 00:59:30;;;;;;;8.50;7.80;;;21.10;33.60;;;;;;4954059;29;20518;-59
2021/09/22 01:01:58;;;;;;;7.20;6.60;;;21.10;33.60;;;;;;4954143;29;20203;-60
2021/09/22 01:04:23;;;;;;;7.77;7.17;;;21.10;33.60;;;;;;4954174;29;20207;-60
2021/09/22 01:06:49;;;;;;;7.40;6.80;;;21.00;33.40;;;;;;4953762;29;20470;-59
2021/09/22 01:09:15;;;;;;;7.53;7.03;;;21.00;33.30;;;;;;4954006;29;20227;-59
2021/09/22 01:11:40;;;;;;;6.93;6.43;;;21.10;33.50;;;;;;4953956;29;20234;-60
2021/09/22 01:14:07;;;;;;;7.80;7.20;;;21.10;33.50;;;;;;4953293;28;20187;-59
2021/09/22 01:16:45;;;;;;;7.40;6.80;;;21.10;33.70;;;;;;4953859;29;20220;-58
2021/09/22 01:19:11;;;;;;;7.10;6.60;;;21.10;33.70;;;;;;4953933;29;20941;-59
2021/09/22 01:21:41;;;;;;;7.77;7.17;;;21.10;33.70;;;;;;4953843;29;20819;-59
2021/09/22 01:24:07;;;;;;;7.40;7.00;;;21.00;33.60;;;;;;4954031;29;20407;-59
2021/09/22 01:26:33;;;;;;;6.30;5.80;;;21.00;33.50;;;;;;4953633;29;20930;-60
2021/09/22 01:28:59;;;;;;;7.73;7.17;;;21.10;33.70;;;;;;4953828;29;20613;-60
2021/09/22 01:31:24;;;;;;;7.00;6.30;;;21.10;33.70;;;;;;4953780;29;20454;-59
2021/09/22 01:33:50;;;;;;;6.97;6.57;;;21.00;33.70;;;;;;4953820;29;20542;-60
2021/09/22 01:36:16;;;;;;;7.90;7.30;;;21.00;33.70;;;;;;4954077;29;20654;-60
2021/09/22 01:38:42;;;;;;;7.50;7.00;;;21.00;33.80;;;;;;4953435;29;20278;-58
2021/09/22 01:41:08;;;;;;;7.37;6.60;;;21.00;33.80;;;;;;4953797;29;20183;-60
2021/09/22 01:43:37;;;;;;;6.57;6.17;;;21.00;33.80;;;;;;4953632;29;20180;-58
2021/09/22 01:46:04;;;;;;;6.70;6.30;;;21.00;33.90;;;;;;4953903;28;20442;-60
2021/09/22 01:48:30;;;;;;;7.17;6.63;;;21.00;33.90;;;;;;4953631;29;20439;-59
2021/09/22 01:50:58;;;;;;;7.30;6.70;;;21.00;33.90;;;;;;4953595;29;20474;-60
2021/09/22 01:53:23;;;;;;;7.37;6.87;;;21.00;33.90;;;;;;4953636;29;20231;-60
2021/09/22 01:55:52;;;;;;;7.03;6.63;;;21.00;33.90;;;;;;4953646;29;20909;-60
2021/09/22 01:58:18;;;;;;;7.03;6.53;;;21.00;34.00;;;;;;4953204;29;20202;-60
2021/09/22 02:00:44;;;;;;;8.70;7.80;;;21.00;34.00;;;;;;4953649;29;20415;-58
2021/09/22 02:03:10;;;;;;;7.97;7.07;;;21.00;34.00;;;;;;4953666;29;20543;-60
2021/09/22 02:05:35;;;;;;;6.73;6.23;;;21.00;34.00;;;;;;4953643;29;20183;-60
2021/09/22 02:08:01;;;;;;;6.80;6.40;;;21.00;34.00;;;;;;4953200;29;20611;-60
2021/09/22 02:10:27;;;;;;;8.17;7.53;;;21.00;34.00;;;;;;4953463;29;20207;-60
2021/09/22 02:12:52;;;;;;;7.33;6.83;;;21.00;34.80;;;;;;4953296;29;20947;-60
2021/09/22 02:15:18;;;;;;;6.23;5.80;;;21.00;34.00;;;;;;4953550;29;20685;-60
2021/09/22 02:17:43;;;;;;;7.03;6.57;;;21.00;34.10;;;;;;4953372;29;20673;-60
2021/09/22 02:20:11;;;;;;;8.43;7.63;;;21.00;34.00;;;;;;4953397;29;20265;-60
2021/09/22 02:22:37;;;;;;;8.03;7.47;;;21.00;33.90;;;;;;4953518;28;20186;-59
2021/09/22 02:25:04;;;;;;;7.07;6.47;;;21.00;33.90;;;;;;4954411;28;20783;-59
2021/09/22 02:27:29;;;;;;;6.70;6.20;;;21.00;34.00;;;;;;4956550;29;20465;-60
2021/09/22 02:29:55;;;;;;;6.80;6.30;;;21.00;33.80;;;;;;4956671;29;20462;-60
2021/09/22 02:32:21;;;;;;;7.37;6.87;;;21.00;33.80;;;;;;4956947;29;20210;-60
2021/09/22 02:34:46;;;;;;;6.83;6.33;;;21.00;33.80;;;;;;4956836;29;20303;-59
2021/09/22 02:37:12;;;;;;;7.80;7.17;;;21.00;33.80;;;;;;4956566;29;20171;-60
2021/09/22 02:39:37;;;;;;;7.80;7.20;;;21.00;33.70;;;;;;4956583;29;20193;-60
2021/09/22 02:42:03;;;;;;;7.57;7.03;;;21.00;33.90;;;;;;4956492;29;20180;-57
2021/09/22 02:44:29;;;;;;;6.70;6.30;;;20.90;33.90;;;;;;4956557;29;20543;-60
2021/09/22 02:46:54;;;;;;;6.80;6.40;;;21.00;34.00;;;;;;4956470;29;20179;-59
2021/09/22 02:49:20;;;;;;;7.13;6.63;;;20.90;34.00;;;;;;4956414;29;20622;-60
2021/09/22 02:51:46;;;;;;;6.67;6.27;;;20.90;34.00;;;;;;4956271;29;20239;-60
2021/09/22 02:54:12;;;;;;;7.03;6.37;;;20.90;34.00;;;;;;4956369;29;20415;-59
2021/09/22 02:56:37;;;;;;;7.30;6.70;;;20.90;34.00;;;;;;4956048;29;20514;-60
2021/09/22 02:59:03;;;;;;;7.00;6.50;;;20.90;34.00;;;;;;4956240;29;20202;-59
2021/09/22 03:01:29;;;;;;;8.00;7.40;;;20.90;34.00;;;;;;4956270;29;20211;-60
2021/09/22 03:03:54;;;;;;;7.00;6.60;;;20.90;34.10;;;;;;4956216;29;20176;-60
2021/09/22 03:06:20;;;;;;;7.60;7.00;;;20.90;34.00;;;;;;4956166;29;20239;-60
2021/09/22 03:08:45;;;;;;;7.93;7.33;;;20.90;34.10;;;;;;4955865;29;20199;-57
2021/09/22 03:11:11;;;;;;;7.87;7.37;;;20.90;34.10;;;;;;4955917;29;20266;-60
2021/09/22 03:13:38;;;;;;;7.60;7.10;;;20.90;34.20;;;;;;4956019;29;20184;-60
2021/09/22 03:16:05;;;;;;;6.93;6.43;;;21.00;34.30;;;;;;4956029;29;20195;-60
2021/09/22 03:18:31;;;;;;;6.53;6.10;;;21.00;34.30;;;;;;4955780;29;20438;-58
2021/09/22 03:20:57;;;;;;;8.27;7.67;;;21.00;34.20;;;;;;4955852;29;20443;-59
2021/09/22 03:23:22;;;;;;;7.50;6.57;;;20.90;34.20;;;;;;4955885;29;20180;-59
2021/09/22 03:25:48;;;;;;;7.77;7.17;;;20.90;34.10;;;;;;4955728;29;20680;-60
2021/09/22 03:28:13;;;;;;;7.30;6.70;;;21.00;34.30;;;;;;4954531;29;20203;-59
2021/09/22 03:30:39;;;;;;;6.93;6.33;;;20.90;34.20;;;;;;4955808;29;20689;-60
2021/09/22 03:33:05;;;;;;;7.37;6.87;;;20.90;34.20;;;;;;4955606;29;20213;-59
2021/09/22 03:35:31;;;;;;;8.00;7.40;;;20.90;34.20;;;;;;4955601;29;20775;-60
2021/09/22 03:37:57;;;;;;;7.00;6.60;;;21.00;34.30;;;;;;4954670;28;20210;-60
2021/09/22 03:40:22;;;;;;;6.73;6.27;;;20.90;34.10;;;;;;4955487;29;20917;-60
2021/09/22 03:42:48;;;;;;;7.27;6.80;;;20.90;34.10;;;;;;4955506;29;20179;-60
2021/09/22 03:45:13;;;;;;;7.73;7.10;;;21.00;34.10;;;;;;4955366;29;20179;-60
2021/09/22 03:47:39;;;;;;;7.03;6.53;;;21.00;34.10;;;;;;4955226;29;20550;-59
2021/09/22 03:50:06;;;;;;;7.80;7.30;;;21.00;34.10;;;;;;4955140;29;20645;-59
2021/09/22 03:52:32;;;;;;;8.13;7.30;;;21.00;34.20;;;;;;4955322;29;20501;-58
2021/09/22 03:54:58;;;;;;;7.00;6.60;;;20.90;34.10;;;;;;4955105;29;20407;-59
2021/09/22 03:57:23;;;;;;;8.10;7.43;;;20.90;34.00;;;;;;4955056;29;20433;-60
2021/09/22 03:59:49;;;;;;;7.70;7.03;;;20.90;34.00;;;;;;4955277;29;20199;-59
2021/09/22 04:02:14;;;;;;;7.43;6.83;;;20.90;34.00;;;;;;4955069;29;20182;-59
2021/09/22 04:04:40;;;;;;;7.57;6.57;;;20.90;34.00;;;;;;4955091;29;20180;-60
2021/09/22 04:07:05;;;;;;;6.67;6.27;;;20.90;34.00;;;;;;4954749;29;20180;-60
2021/09/22 04:09:31;;;;;;;7.60;7.10;;;20.90;34.00;;;;;;4954853;29;20732;-60
2021/09/22 04:11:56;;;;;;;7.90;7.30;;;20.90;34.00;;;;;;4954982;29;20207;-60
2021/09/22 04:14:22;;;;;;;7.13;6.63;;;20.90;34.10;;;;;;4954857;29;20658;-60
2021/09/22 04:16:48;;;;;;;8.30;7.50;;;20.90;34.20;;;;;;4954715;29;20182;-60
2021/09/22 04:19:13;;;;;;;7.90;7.27;;;20.90;34.70;;;;;;4954783;29;20226;-60
2021/09/22 04:21:39;;;;;;;7.87;7.17;;;20.90;35.00;;;;;;4954646;29;20199;-60
2021/09/22 04:24:04;;;;;;;9.27;8.20;;;20.90;35.70;;;;;;4954664;29;20650;-60
2021/09/22 04:26:30;;;;;;;8.37;7.77;;;20.90;35.70;;;;;;4954550;29;20658;-59
2021/09/22 04:28:56;;;;;;;7.90;7.40;;;20.90;36.00;;;;;;4954401;29;20542;-60
2021/09/22 04:31:22;;;;;;;8.87;7.73;;;20.90;36.20;;;;;;4954445;29;20465;-60
2021/09/22 04:33:48;;;;;;;7.80;7.20;;;20.90;36.30;;;;;;4954580;29;20171;-60
2021/09/22 04:36:13;;;;;;;8.03;7.40;;;20.90;36.20;;;;;;4954435;29;20180;-59
2021/09/22 04:38:41;;;;;;;8.00;7.20;;;20.80;36.20;;;;;;4954045;29;20187;-60
2021/09/22 04:41:07;;;;;;;8.90;8.20;;;20.90;36.20;;;;;;4954343;29;20184;-58
2021/09/22 04:43:32;;;;;;;8.37;7.50;;;20.90;36.20;;;;;;4954385;29;20410;-58
2021/09/22 04:45:58;;;;;;;9.17;7.63;;;20.90;36.10;;;;;;4954370;29;20550;-58
2021/09/22 04:48:24;;;;;;;7.97;7.17;;;20.90;36.20;;;;;;4954150;28;20210;-58
2021/09/22 04:50:50;;;;;;;7.50;6.93;;;20.90;36.20;;;;;;4954246;29;20679;-58
2021/09/22 04:53:15;;;;;;;8.70;7.10;;;20.80;36.10;;;;;;4954076;29;20454;-58
2021/09/22 04:55:41;;;;;;;7.50;6.93;;;20.80;36.10;;;;;;4954164;29;20182;-57
2021/09/22 04:58:07;;;;;;;7.93;7.23;;;20.90;36.00;;;;;;4951539;29;20274;-56
2021/09/22 05:00:32;;;;;;;8.50;7.70;;;20.90;36.00;;;;;;4953876;29;20657;-59
2021/09/22 05:02:58;;;;;;;7.80;7.20;;;20.90;36.20;;;;;;4954059;29;20234;-63
2021/09/22 05:05:23;;;;;;;8.07;7.37;;;21.00;36.80;;;;;;4953706;29;20183;-58
2021/09/22 05:07:49;;;;;;;7.40;6.90;;;20.90;35.90;;;;;;4958165;28;20183;-60
2021/09/22 05:10:15;;;;;;;7.93;7.33;;;20.90;35.80;;;;;;4953880;29;20254;-59
2021/09/22 05:12:40;;;;;;;7.30;6.80;;;20.90;35.80;;;;;;4953749;29;20179;-60
2021/09/22 05:17:52;;;;;;;12.83;12.03;;;20.90;35.80;;;;;;5171703;27;20301;-83
2021/09/22 05:20:17;;;;;;;15.50;14.40;;;16.10;30.80;;;;;;5133192;27;20418;-80
2021/09/22 05:22:43;;;;;;;16.97;15.67;;;13.90;37.90;;;;;;5133314;27;20585;-83
2021/09/22 05:25:09;;;;;;;13.07;11.93;;;13.40;42.10;;;;;;5132800;27;20248;-81
2021/09/22 05:27:35;;;;;;;12.70;11.60;;;12.20;44.70;;;;;;5132645;27;20268;-81
2021/09/22 05:30:05;;;;;;;14.80;12.43;;;11.40;47.80;;;;;;5151473;27;20510;-82
2021/09/22 05:32:30;;;;;;;14.17;12.77;;;10.90;50.60;;;;;;5132707;27;20414;-81
2021/09/22 05:34:57;;;;;;;16.67;15.17;;;10.70;52.10;;;;;;5132572;27;20406;-81
2021/09/22 05:37:23;;;;;;;14.93;13.70;;;10.60;52.80;;;;;;5132546;27;20197;-83
2021/09/22 05:39:50;;;;;;;15.47;14.07;;;10.50;54.30;;;;;;4734173;22;20580;-83
2021/09/22 05:42:15;;;;;;;16.00;14.50;;;10.40;54.80;;;;;;5108085;28;20845;-81
2021/09/22 05:45:01;;;;;;;17.13;15.63;;;10.30;54.50;;;;;;5107982;28;20223;-83
2021/09/22 05:47:27;;;;;;;17.03;15.33;;;10.30;55.90;;;;;;5106305;28;20250;-83
2021/09/22 05:49:53;;;;;;;18.17;16.37;;;10.30;56.10;;;;;;5108594;28;20437;-84
2021/09/22 05:52:22;;;;;;;16.57;15.00;;;10.30;55.70;;;;;;5109707;28;20403;-82
2021/09/22 05:54:49;;;;;;;17.80;16.20;;;10.20;56.60;;;;;;5108556;28;20562;-82
2021/09/22 05:57:18;;;;;;;18.03;16.43;;;10.30;56.50;;;;;;5108176;28;20451;-81
2021/09/22 05:59:44;;;;;;;17.20;15.60;;;10.30;56.90;;;;;;5108277;28;20448;-83
2021/09/22 06:02:11;;;;;;;18.33;16.40;;;10.20;57.20;;;;;;5108196;28;20832;-82
2021/09/22 06:04:36;;;;;;;18.20;16.50;;;10.20;56.80;;;;;;5107306;28;20408;-81
2021/09/22 06:07:04;;;;;;;19.33;17.57;;;10.20;57.00;;;;;;5108208;28;20938;-81
2021/09/22 06:09:30;;;;;;;18.87;17.07;;;10.20;57.20;;;;;;5108074;28;20174;-82
2021/09/22 06:11:56;;;;;;;18.90;17.20;;;10.30;57.10;;;;;;5107902;28;20468;-82
2021/09/22 06:14:21;;;;;;;20.47;18.40;;;10.30;57.20;;;;;;5107989;28;20174;-82
2021/09/22 06:16:50;;;;;;;19.77;18.07;;;10.30;56.80;;;;;;5107523;28;20427;-82
2021/09/22 06:19:24;;;;;;;19.50;17.67;;;10.40;57.30;;;;;;5108177;28;20408;-83
2021/09/22 06:22:24;;;;;;;18.37;16.77;;;10.30;57.10;;;;;;5109308;28;20401;-82
2021/09/22 06:24:59;;;;;;;20.00;18.10;;;10.30;57.20;;;;;;5107469;28;20533;-82
2021/09/22 06:27:37;;;;;;;19.37;17.47;;;10.40;57.40;;;;;;5103788;28;20778;-81
2021/09/22 06:30:30;;;;;;;20.77;16.93;;;10.40;56.90;;;;;;5083408;28;20424;-82
2021/09/22 06:32:56;;;;;;;19.97;18.00;;;10.40;56.80;;;;;;5094148;28;20553;-81
2021/09/22 06:35:39;;;;;;;19.60;17.70;;;10.60;56.70;;;;;;5093912;28;20492;-82
2021/09/22 06:38:13;;;;;;;18.30;16.50;;;10.70;55.50;;;;;;5092467;28;20186;-81
2021/09/22 06:40:42;;;;;;;19.40;17.33;;;10.70;55.20;;;;;;5094434;28;20819;-82
2021/09/22 06:43:07;;;;;;;16.77;15.27;;;10.70;55.70;;;;;;5093694;28;20420;-81
2021/09/22 06:45:39;;;;;;;21.27;18.90;;;10.80;55.20;;;;;;5093681;28;20413;-82
2021/09/22 06:48:11;;;;;;;18.97;17.20;;;10.90;55.00;;;;;;5093193;28;20257;-83
2021/09/22 06:50:37;;;;;;;19.33;17.37;;;10.90;54.30;;;;;;5094016;28;20434;-82
2021/09/22 06:53:03;;;;;;;19.77;17.30;;;10.90;54.10;;;;;;5095355;28;20885;-82
2021/09/22 06:55:29;;;;;;;19.27;17.20;;;10.80;53.60;;;;;;5095841;28;20438;-82
2021/09/22 06:58:01;;;;;;;22.80;20.33;;;10.90;54.50;;;;;;5092280;28;20408;-81
2021/09/22 07:00:51;;;;;;;18.20;16.57;;;10.90;53.70;;;;;;5073681;28;20248;-82
2021/09/22 07:03:19;;;;;;;20.40;18.40;;;11.10;54.50;;;;;;5074909;28;20428;-82
2021/09/22 07:06:23;;;;;;;20.80;18.83;;;11.10;53.40;;;;;;5085392;28;20807;-82
2021/09/22 07:09:16;;;;;;;21.43;19.43;;;11.30;53.20;;;;;;5072428;28;20774;-82
2021/09/22 07:11:45;;;;;;;20.43;18.33;;;11.40;52.70;;;;;;5073512;28;20826;-82
2021/09/22 07:14:32;;;;;;;27.23;19.63;;;11.50;51.70;;;;;;5072390;28;20535;-82
2021/09/22 07:17:01;;;;;;;21.00;18.90;;;11.60;52.80;;;;;;5066358;28;20957;-82
2021/09/22 07:19:27;;;;;;;21.47;19.30;;;11.70;50.90;;;;;;5072289;28;20425;-81
2021/09/22 07:21:53;;;;;;;23.63;18.10;;;11.50;51.60;;;;;;5072554;28;20956;-81
2021/09/22 07:24:18;;;;;;;19.80;18.00;;;11.50;52.00;;;;;;5072600;28;20730;-81
2021/09/22 07:27:03;;;;;;;24.93;20.00;;;11.60;52.30;;;;;;5072311;28;20198;-81
2021/09/22 07:29:50;;;;;;;21.33;19.30;;;11.70;52.70;;;;;;5055361;28;20184;-81
2021/09/22 07:32:21;;;;;;;22.63;20.27;;;11.60;52.80;;;;;;5039267;28;20512;-82
2021/09/22 07:34:47;;;;;;;21.67;19.67;;;11.60;52.60;;;;;;5055837;28;20568;-81
2021/09/22 07:37:22;;;;;;;22.13;19.90;;;11.60;52.70;;;;;;5071575;28;20540;-81
2021/09/22 07:39:48;;;;;;;21.27;19.23;;;11.70;52.80;;;;;;5070985;28;20174;-81
2021/09/22 07:42:19;;;;;;;21.80;19.57;;;11.80;51.60;;;;;;5073269;28;20424;-81
2021/09/22 07:44:54;;;;;;;21.30;19.13;;;11.90;52.40;;;;;;5073388;28;20700;-81
2021/09/22 07:47:38;;;;;;;21.57;19.50;;;11.90;51.10;;;;;;5072642;28;20899;-82
2021/09/22 07:50:10;;;;;;;21.40;19.40;;;12.10;51.40;;;;;;5071967;28;20827;-82
2021/09/22 07:52:37;;;;;;;21.80;19.90;;;12.00;50.50;;;;;;5071625;28;20433;-82
2021/09/22 07:55:05;;;;;;;24.53;21.70;;;11.90;50.70;;;;;;5072368;28;20409;-82
2021/09/22 07:57:54;;;;;;;23.00;20.63;;;11.90;50.20;;;;;;5072469;28;20457;-81
2021/09/22 08:00:43;;;;;;;21.47;19.33;;;11.90;51.30;;;;;;5071986;28;20421;-82
2021/09/22 08:03:11;;;;;;;21.87;19.47;;;12.00;51.00;;;;;;5071878;28;20766;-81
2021/09/22 08:05:39;;;;;;;22.57;20.23;;;12.00;51.00;;;;;;5071532;28;20834;-81
2021/09/22 08:08:07;;;;;;;22.60;20.20;;;12.10;51.00;;;;;;5071115;28;20402;-81
2021/09/22 08:10:59;;;;;;;22.07;19.77;;;12.20;49.90;;;;;;5072683;28;20409;-81
2021/09/22 08:13:31;;;;;;;20.57;18.57;;;12.20;50.80;;;;;;5072995;28;20409;-82
2021/09/22 08:16:00;;;;;;;20.50;18.40;;;12.30;49.30;;;;;;5071134;28;20821;-83
2021/09/22 08:18:29;;;;;;;22.03;19.93;;;12.50;49.10;;;;;;5090490;28;20405;-83
2021/09/22 08:20:55;;;;;;;19.00;17.07;;;12.50;47.30;;;;;;5091451;28;20504;-82
2021/09/22 08:23:23;;;;;;;20.73;18.63;;;12.60;47.40;;;;;;5067496;28;20578;-81
2021/09/22 08:25:55;;;;;;;22.43;19.97;;;12.70;47.50;;;;;;5054549;28;20421;-81
2021/09/22 08:28:40;;;;;;;22.60;20.17;;;12.80;46.80;;;;;;5071523;28;20494;-82
2021/09/22 08:31:07;;;;;;;21.30;19.30;;;12.80;45.90;;;;;;5068543;28;20969;-81
2021/09/22 08:33:42;;;;;;;18.90;17.40;;;12.80;46.30;;;;;;5071158;28;20410;-81
2021/09/22 08:36:12;;;;;;;19.10;17.37;;;12.90;45.20;;;;;;5071090;28;20449;-81
2021/09/22 08:39:01;;;;;;;17.93;16.13;;;12.90;44.20;;;;;;5054412;28;20801;-82
2021/09/22 08:41:31;;;;;;;19.03;17.30;;;13.00;46.00;;;;;;5066158;28;20448;-82
2021/09/22 08:46:51;;;;;;;18.10;16.43;;;13.10;43.60;;;;;;5071088;28;20944;-82
2021/09/22 08:49:23;;;;;;;16.23;14.83;;;13.20;43.70;;;;;;5070493;28;20445;-82
2021/09/22 08:51:48;;;;;;;15.93;14.50;;;13.30;42.90;;;;;;5072023;28;20412;-80
2021/09/22 08:54:15;;;;;;;16.63;15.13;;;13.40;41.90;;;;;;5071892;28;20410;-83
2021/09/22 08:57:01;;;;;;;17.20;15.50;;;13.40;43.30;;;;;;5090803;28;20566;-81
2021/09/22 08:59:29;;;;;;;17.87;15.63;;;13.60;41.50;;;;;;5091118;28;20421;-81
2021/09/22 09:02:15;;;;;;;24.90;17.03;;;13.60;41.60;;;;;;5090941;28;20503;-82
2021/09/22 09:04:43;;;;;;;17.50;15.80;;;13.80;43.10;;;;;;5091082;28;20466;-82
2021/09/22 09:07:12;;;;;;;18.57;16.30;;;13.80;42.40;;;;;;5092077;28;20416;-83
2021/09/22 09:13:56;;;;;;;17.30;15.60;;;14.00;41.70;;;;;;5083740;28;20423;-82
2021/09/22 09:17:19;;;;;;;17.33;15.67;;;14.10;42.30;;;;;;5029167;28;20558;-81
2021/09/22 09:20:14;;;;;;;15.40;13.80;;;14.20;41.10;;;;;;5041697;28;20491;-84
2021/09/22 09:22:40;;;;;;;16.57;15.10;;;14.30;42.60;;;;;;5085478;28;20421;-82
2021/09/22 09:25:07;;;;;;;16.30;14.30;;;14.60;41.30;;;;;;5070667;28;20931;-82
2021/09/22 09:27:37;;;;;;;14.93;13.60;;;14.70;39.90;;;;;;5070846;28;20860;-82
2021/09/22 09:30:38;;;;;;;14.33;12.93;;;14.70;38.00;;;;;;5072328;28;20722;-82
2021/09/22 09:33:04;;;;;;;16.10;14.50;;;14.70;36.90;;;;;;5071922;28;20405;-82
2021/09/22 09:35:55;;;;;;;14.27;12.90;;;14.70;37.50;;;;;;5070256;28;20424;-81
2021/09/22 09:38:29;;;;;;;16.17;11.90;;;14.80;37.50;;;;;;5068670;28;20179;-82
2021/09/22 09:40:55;;;;;;;14.40;11.57;;;15.00;37.30;;;;;;5070418;28;20793;-82
2021/09/22 09:43:21;;;;;;;10.73;9.67;;;15.00;34.60;;;;;;5070320;28;20416;-81
2021/09/22 09:45:46;;;;;;;13.77;9.77;;;15.00;33.90;;;;;;5071617;28;20229;-81
2021/09/22 09:48:17;;;;;;;12.83;9.93;;;15.20;34.00;;;;;;5070157;28;20171;-81
2021/09/22 09:50:59;;;;;;;11.63;10.53;;;15.30;33.90;;;;;;5070179;28;20591;-82
2021/09/22 09:53:26;;;;;;;10.17;9.37;;;15.30;32.30;;;;;;5070217;28;20787;-82
2021/09/22 09:55:53;;;;;;;9.70;8.80;;;15.40;33.80;;;;;;5069676;28;20453;-82
2021/09/22 09:58:22;;;;;;;9.70;8.90;;;15.60;34.70;;;;;;5069961;28;20493;-82
2021/09/22 10:00:50;;;;;;;9.77;9.07;;;15.60;33.60;;;;;;5069995;28;20425;-82
2021/09/22 10:03:18;;;;;;;10.23;9.23;;;15.60;33.80;;;;;;5071855;28;20817;-82
2021/09/22 10:05:49;;;;;;;10.80;9.87;;;15.40;34.50;;;;;;5073514;28;20409;-82
2021/09/22 10:08:16;;;;;;;9.47;8.67;;;15.50;35.00;;;;;;5073747;28;20940;-82
2021/09/22 10:10:44;;;;;;;10.37;9.47;;;15.60;33.20;;;;;;5073808;28;20410;-82
2021/09/22 10:13:12;;;;;;;11.10;9.80;;;15.60;34.10;;;;;;5073670;28;20410;-82
2021/09/22 10:15:42;;;;;;;12.13;10.13;;;15.70;33.40;;;;;;5094499;28;20546;-81
2021/09/22 10:18:14;;;;;;;10.63;9.53;;;15.70;34.10;;;;;;5093518;28;20416;-82
2021/09/22 10:20:42;;;;;;;10.60;9.60;;;15.60;32.10;;;;;;5095200;28;20951;-82
2021/09/22 10:23:11;;;;;;;10.07;9.13;;;15.60;33.70;;;;;;5094325;28;20415;-81
2021/09/22 10:25:39;;;;;;;8.00;7.30;;;15.70;34.30;;;;;;5094317;28;20409;-82
2021/09/22 10:28:05;;;;;;;9.90;9.00;;;15.70;33.80;;;;;;5094123;28;20904;-83
2021/09/22 10:30:47;;;;;;;9.80;8.63;;;15.90;33.40;;;;;;5094129;28;20503;-82
2021/09/22 10:33:36;;;;;;;12.43;10.23;;;15.80;34.50;;;;;;5094686;28;20408;-81
2021/09/22 10:36:04;;;;;;;12.30;10.55;;;15.80;33.70;;;;;;5093360;28;20785;-82
2021/09/22 10:38:30;;;;;;;10.33;9.33;;;15.90;34.10;;;;;;5093948;28;20451;-82
2021/09/22 10:40:56;;;;;;;13.40;8.70;;;15.90;34.10;;;;;;5095330;28;20428;-81
2021/09/22 10:43:41;;;;;;;10.53;9.63;;;16.00;35.30;;;;;;5094074;28;20181;-81
2021/09/22 10:46:07;;;;;;;9.87;9.07;;;16.00;34.50;;;;;;5093631;28;20424;-80
2021/09/22 10:48:35;;;;;;;8.23;7.53;;;16.10;32.80;;;;;;5094092;28;20503;-81
2021/09/22 10:51:04;;;;;;;10.00;7.87;;;16.10;34.50;;;;;;5093778;28;20417;-80
2021/09/22 10:53:33;;;;;;;7.83;7.13;;;16.10;34.50;;;;;;5092639;28;20420;-84
2021/09/22 10:56:25;;;;;;;8.13;7.43;;;16.10;34.30;;;;;;5093167;28;20491;-79
2021/09/22 10:58:51;;;;;;;8.30;7.57;;;16.30;34.00;;;;;;5094902;28;20892;-82
2021/09/22 11:01:34;;;;;;;7.70;7.10;;;16.40;32.00;;;;;;5093072;28;20462;-84
2021/09/22 11:04:13;;;;;;;7.23;6.60;;;16.30;31.00;;;;;;5092901;28;20408;-83
2021/09/22 11:06:47;;;;;;;8.13;7.43;;;16.20;31.90;;;;;;5092891;28;20787;-82
2021/09/22 11:09:25;;;;;;;6.83;6.33;;;16.30;34.70;;;;;;5093174;28;20412;-82
2021/09/22 11:11:58;;;;;;;6.03;5.53;;;16.80;33.30;;;;;;5092811;28;20415;-82
2021/09/22 11:14:27;;;;;;;6.97;6.37;;;16.70;30.90;;;;;;5092708;28;20405;-82
2021/09/22 11:17:23;;;;;;;5.63;5.23;;;16.70;30.90;;;;;;5092622;28;20555;-82
2021/09/22 11:20:00;;;;;;;5.87;5.13;;;16.70;30.10;;;;;;5092655;28;20427;-82
2021/09/22 11:22:32;;;;;;;5.80;5.33;;;16.90;32.00;;;;;;5092800;28;20538;-82
2021/09/22 11:24:59;;;;;;;5.20;4.80;;;17.00;32.50;;;;;;5092144;28;20409;-82
2021/09/22 11:27:27;;;;;;;5.37;5.00;;;16.90;29.80;;;;;;5092463;28;20423;-82
2021/09/22 11:29:58;;;;;;;6.30;5.83;;;17.00;29.90;;;;;;5094623;28;20405;-82
2021/09/22 11:32:30;;;;;;;5.43;5.03;;;17.00;31.60;;;;;;5093911;28;20421;-83
2021/09/22 11:35:10;;;;;;;6.07;5.07;;;17.00;29.70;;;;;;5092752;28;20417;-81
2021/09/22 11:37:39;;;;;;;5.40;4.80;;;17.20;30.70;;;;;;5092017;28;20551;-82
2021/09/22 11:40:18;;;;;;;5.73;5.33;;;17.10;29.40;;;;;;5092131;28;20412;-81
2021/09/22 11:43:11;;;;;;;10.33;5.17;;;16.90;29.70;;;;;;5092297;28;20416;-82
2021/09/22 11:45:45;;;;;;;5.23;4.73;;;17.00;30.50;;;;;;5092110;28;20507;-81
2021/09/22 11:48:16;;;;;;;4.50;4.20;;;16.90;31.20;;;;;;5092288;28;20749;-82
2021/09/22 11:50:42;;;;;;;4.97;4.57;;;17.10;30.90;;;;;;5092142;28;20470;-81
2021/09/22 11:53:13;;;;;;;7.57;5.20;;;17.00;31.40;;;;;;5092112;28;20487;-82
2021/09/22 11:55:41;;;;;;;8.83;4.90;;;17.10;33.70;;;;;;5091576;28;20565;-82
2021/09/22 11:58:13;;;;;;;5.33;4.30;;;17.20;30.60;;;;;;5092836;28;20419;-81
2021/09/22 12:00:41;;;;;;;4.90;4.60;;;17.20;32.00;;;;;;5091946;28;20416;-82
2021/09/22 12:03:11;;;;;;;5.40;5.00;;;17.30;32.20;;;;;;5092103;28;20424;-82
2021/09/22 12:05:39;;;;;;;5.77;5.37;;;17.10;32.20;;;;;;5091944;28;20417;-82
2021/09/22 12:08:06;;;;;;;5.80;5.00;;;17.30;32.70;;;;;;5093000;28;20405;-82
2021/09/22 12:10:33;;;;;;;8.30;5.33;;;17.50;31.10;;;;;;5093070;28;20472;-82
2021/09/22 12:13:03;;;;;;;5.13;4.80;;;17.60;31.20;;;;;;5093043;28;20419;-82
2021/09/22 12:15:32;;;;;;;5.63;5.07;;;17.50;31.40;;;;;;5095313;28;20826;-82
2021/09/22 12:17:58;;;;;;;5.00;4.60;;;17.50;30.20;;;;;;5092499;28;20428;-82
2021/09/22 12:20:24;;;;;;;6.10;5.60;;;17.60;31.70;;;;;;5088405;28;20479;-82
2021/09/22 12:23:09;;;;;;;6.07;5.50;;;17.60;33.70;;;;;;5081366;28;20790;-83
2021/09/22 12:25:40;;;;;;;6.10;5.60;;;17.60;31.10;;;;;;5080982;28;20409;-83
2021/09/22 12:29:00;;;;;;;5.00;4.60;;;17.60;31.50;;;;;;5079131;28;20716;-82
2021/09/22 12:35:07;;;;;;;6.90;6.40;;;17.60;30.80;;;;;;5068687;28;20515;-83
2021/09/22 12:37:40;;;;;;;7.80;7.20;;;17.70;30.60;;;;;;5079227;28;20487;-83
2021/09/22 12:40:38;;;;;;;6.70;6.10;;;17.60;31.10;;;;;;5079949;28;20410;-82
2021/09/22 12:43:18;;;;;;;6.60;5.80;;;17.60;31.70;;;;;;5081929;28;20416;-82
2021/09/22 12:45:43;;;;;;;6.63;5.83;;;17.60;32.70;;;;;;5091173;28;20478;-83
2021/09/22 12:48:09;;;;;;;11.50;6.70;;;17.70;32.50;;;;;;5090562;28;20439;-83
2021/09/22 12:50:41;;;;;;;5.93;5.53;;;17.70;32.50;;;;;;5071175;28;20248;-83
2021/09/22 12:53:10;;;;;;;5.50;5.03;;;17.70;31.20;;;;;;5070963;28;20656;-82
2021/09/22 12:55:42;;;;;;;5.03;4.60;;;17.80;32.10;;;;;;5070822;28;20868;-82
2021/09/22 12:58:09;;;;;;;9.70;5.70;;;17.80;31.90;;;;;;5070539;28;20417;-83
2021/09/22 13:00:43;;;;;;;5.47;5.07;;;17.90;30.70;;;;;;5070672;28;20449;-83
2021/09/22 13:03:12;;;;;;;5.10;4.53;;;18.00;31.80;;;;;;5071876;28;20769;-83
2021/09/22 13:05:42;;;;;;;5.60;5.10;;;17.80;31.50;;;;;;5070554;28;20421;-83
2021/09/22 13:08:12;;;;;;;5.37;5.00;;;17.90;31.20;;;;;;5070594;28;20574;-82